sensor_id;sensor_type;location;lat;lon;timestamp;temperature;humidity
1135;DHT22;556;53.550;10.048;2022-07-10T00:00:30;17.50;46.40
1135;DHT22;556;53.550;10.048;2022-07-10T00:02:59;17.50;46.30
1135;DHT22;556;53.550;10.048;2022-07-10T00:05:26;17.50;46.30
1135;DHT22;556;53.550;10.048;2022-07-10T00:07:55;17.50;46.30
1135;DHT22;556;53.550;10.048;2022-07-10T00:10:22;17.60;46.40
1135;DHT22;556;53.550;10.048;2022-07-10T00:12:50;17.60;46.50
1135;DHT22;556;53.550;10.048;2022-07-10T00:15:18;17.60;46.50
1135;DHT22;556;53.550;10.048;2022-07-10T00:17:46;17.50;46.80
1135;DHT22;556;53.550;10.048;2022-07-10T00:20:13;17.60;46.90
1135;DHT22;556;53.550;10.048;2022-07-10T00:22:42;17.50;46.80
1135;DHT22;556;53.550;10.048;2022-07-10T00:30:08;17.50;46.90
1135;DHT22;556;53.550;10.048;2022-07-10T00:37:30;17.50;47.10
1135;DHT22;556;53.550;10.048;2022-07-10T00:39:57;17.40;47.10
1135;DHT22;556;53.550;10.048;2022-07-10T00:42:26;17.40;47.20
1135;DHT22;556;53.550;10.048;2022-07-10T00:44:54;17.30;47.30
1135;DHT22;556;53.550;10.048;2022-07-10T00:52:17;17.20;47.30
1135;DHT22;556;53.550;10.048;2022-07-10T00:54:45;17.10;47.40
1135;DHT22;556;53.550;10.048;2022-07-10T00:59:43;17.10;47.30
1135;DHT22;556;53.550;10.048;2022-07-10T01:04:38;17.10;47.60
1135;DHT22;556;53.550;10.048;2022-07-10T01:07:05;17.10;47.70
1135;DHT22;556;53.550;10.048;2022-07-10T01:09:33;17.10;47.70
1135;DHT22;556;53.550;10.048;2022-07-10T01:12:01;17.10;47.80
1135;DHT22;556;53.550;10.048;2022-07-10T01:16:58;17.10;47.80
1135;DHT22;556;53.550;10.048;2022-07-10T01:19:25;17.10;47.80
1135;DHT22;556;53.550;10.048;2022-07-10T01:21:54;17.10;47.80
1135;DHT22;556;53.550;10.048;2022-07-10T01:24:21;17.10;47.80
1135;DHT22;556;53.550;10.048;2022-07-10T01:26:48;17.10;47.70
1135;DHT22;556;53.550;10.048;2022-07-10T01:29:15;17.10;47.80
1135;DHT22;556;53.550;10.048;2022-07-10T01:31:42;17.10;47.90
1135;DHT22;556;53.550;10.048;2022-07-10T01:34:10;17.10;47.80
1135;DHT22;556;53.550;10.048;2022-07-10T01:36:37;17.10;47.80
1135;DHT22;556;53.550;10.048;2022-07-10T01:39:07;17.20;47.80
1135;DHT22;556;53.550;10.048;2022-07-10T01:41:35;17.20;47.80
1135;DHT22;556;53.550;10.048;2022-07-10T01:44:02;17.10;47.80
1135;DHT22;556;53.550;10.048;2022-07-10T01:48:57;17.20;47.90
1135;DHT22;556;53.550;10.048;2022-07-10T01:58:47;17.00;48.00
1135;DHT22;556;53.550;10.048;2022-07-10T02:01:14;17.00;48.20
1135;DHT22;556;53.550;10.048;2022-07-10T02:06:27;16.90;48.20
1135;DHT22;556;53.550;10.048;2022-07-10T02:08:54;16.90;48.30
1135;DHT22;556;53.550;10.048;2022-07-10T02:11:22;16.90;48.30
1135;DHT22;556;53.550;10.048;2022-07-10T02:13:49;16.90;48.40
1135;DHT22;556;53.550;10.048;2022-07-10T02:16:16;16.90;48.30
1135;DHT22;556;53.550;10.048;2022-07-10T02:21:11;17.00;48.40
1135;DHT22;556;53.550;10.048;2022-07-10T02:36:21;17.10;48.40
1135;DHT22;556;53.550;10.048;2022-07-10T02:38:48;17.10;48.40
1135;DHT22;556;53.550;10.048;2022-07-10T02:43:44;17.10;48.40
1135;DHT22;556;53.550;10.048;2022-07-10T02:46:12;17.10;48.50
1135;DHT22;556;53.550;10.048;2022-07-10T02:48:39;17.10;48.60
1135;DHT22;556;53.550;10.048;2022-07-10T02:51:06;17.10;48.60
1135;DHT22;556;53.550;10.048;2022-07-10T02:58:29;17.20;48.50
1135;DHT22;556;53.550;10.048;2022-07-10T03:00:58;17.20;48.50
1135;DHT22;556;53.550;10.048;2022-07-10T03:05:53;17.20;48.50
1135;DHT22;556;53.550;10.048;2022-07-10T03:10:47;17.30;48.50
1135;DHT22;556;53.550;10.048;2022-07-10T03:15:42;17.30;48.60
1135;DHT22;556;53.550;10.048;2022-07-10T03:23:05;17.30;48.60
1135;DHT22;556;53.550;10.048;2022-07-10T03:25:32;17.30;48.60
1135;DHT22;556;53.550;10.048;2022-07-10T03:28:00;17.40;48.60
1135;DHT22;556;53.550;10.048;2022-07-10T03:32:55;17.40;48.50
1135;DHT22;556;53.550;10.048;2022-07-10T03:37:51;17.40;48.50
1135;DHT22;556;53.550;10.048;2022-07-10T03:40:18;17.40;48.60
1135;DHT22;556;53.550;10.048;2022-07-10T03:42:46;17.40;48.60
1135;DHT22;556;53.550;10.048;2022-07-10T03:47:41;17.40;48.60
1135;DHT22;556;53.550;10.048;2022-07-10T03:50:08;17.40;48.60
1135;DHT22;556;53.550;10.048;2022-07-10T03:57:33;17.40;48.60
1135;DHT22;556;53.550;10.048;2022-07-10T04:00:17;17.50;48.60
1135;DHT22;556;53.550;10.048;2022-07-10T04:02:44;17.50;48.60
1135;DHT22;556;53.550;10.048;2022-07-10T04:10:08;17.60;48.60
1135;DHT22;556;53.550;10.048;2022-07-10T04:22:27;17.70;48.30
1135;DHT22;556;53.550;10.048;2022-07-10T04:24:55;17.70;48.30
1135;DHT22;556;53.550;10.048;2022-07-10T04:29:50;17.80;48.30
1135;DHT22;556;53.550;10.048;2022-07-10T04:34:45;17.90;48.10
1135;DHT22;556;53.550;10.048;2022-07-10T04:37:13;17.90;48.10
1135;DHT22;556;53.550;10.048;2022-07-10T04:39:40;17.90;48.00
1135;DHT22;556;53.550;10.048;2022-07-10T04:49:32;17.70;48.00
1135;DHT22;556;53.550;10.048;2022-07-10T04:52:00;17.70;47.90
1135;DHT22;556;53.550;10.048;2022-07-10T04:56:54;17.80;47.90
1135;DHT22;556;53.550;10.048;2022-07-10T04:59:23;17.90;47.80
1135;DHT22;556;53.550;10.048;2022-07-10T05:04:17;18.20;47.70
1135;DHT22;556;53.550;10.048;2022-07-10T05:11:39;18.30;47.50
1135;DHT22;556;53.550;10.048;2022-07-10T05:14:06;18.20;47.50
1135;DHT22;556;53.550;10.048;2022-07-10T05:16:35;18.10;47.50
1135;DHT22;556;53.550;10.048;2022-07-10T05:21:30;18.00;47.50
1135;DHT22;556;53.550;10.048;2022-07-10T05:26:25;18.00;47.50
1135;DHT22;556;53.550;10.048;2022-07-10T05:28:53;18.00;47.50
1135;DHT22;556;53.550;10.048;2022-07-10T05:31:20;18.00;47.40
1135;DHT22;556;53.550;10.048;2022-07-10T05:38:43;18.10;47.20
1135;DHT22;556;53.550;10.048;2022-07-10T05:41:10;18.10;47.20
1135;DHT22;556;53.550;10.048;2022-07-10T05:46:05;18.30;47.00
1135;DHT22;556;53.550;10.048;2022-07-10T05:48:32;18.30;47.00
1135;DHT22;556;53.550;10.048;2022-07-10T05:51:01;18.50;46.90
1135;DHT22;556;53.550;10.048;2022-07-10T05:55:59;18.70;46.60
1135;DHT22;556;53.550;10.048;2022-07-10T06:05:50;19.10;46.30
1135;DHT22;556;53.550;10.048;2022-07-10T06:08:18;19.10;46.20
1135;DHT22;556;53.550;10.048;2022-07-10T06:13:14;19.30;46.00
1135;DHT22;556;53.550;10.048;2022-07-10T06:15:41;19.30;45.90
1135;DHT22;556;53.550;10.048;2022-07-10T06:18:08;19.30;45.80
1135;DHT22;556;53.550;10.048;2022-07-10T06:23:03;19.50;45.50
1135;DHT22;556;53.550;10.048;2022-07-10T06:25:31;19.50;45.50
1135;DHT22;556;53.550;10.048;2022-07-10T06:27:58;19.50;45.30
1135;DHT22;556;53.550;10.048;2022-07-10T06:30:26;19.50;45.40
1135;DHT22;556;53.550;10.048;2022-07-10T06:32:53;19.50;45.50
1135;DHT22;556;53.550;10.048;2022-07-10T06:35:20;19.50;45.30
1135;DHT22;556;53.550;10.048;2022-07-10T06:37:47;19.40;45.30
1135;DHT22;556;53.550;10.048;2022-07-10T06:40:14;19.40;45.10
1135;DHT22;556;53.550;10.048;2022-07-10T06:42:42;19.40;45.10
1135;DHT22;556;53.550;10.048;2022-07-10T06:45:11;19.50;45.00
1135;DHT22;556;53.550;10.048;2022-07-10T06:47:39;19.50;44.90
1135;DHT22;556;53.550;10.048;2022-07-10T06:50:25;19.50;44.80
1135;DHT22;556;53.550;10.048;2022-07-10T06:55:21;19.40;44.60
1135;DHT22;556;53.550;10.048;2022-07-10T06:57:50;19.30;44.60
1135;DHT22;556;53.550;10.048;2022-07-10T07:00:17;19.30;44.60
1135;DHT22;556;53.550;10.048;2022-07-10T07:02:45;19.20;44.60
1135;DHT22;556;53.550;10.048;2022-07-10T07:05:12;19.20;44.70
1135;DHT22;556;53.550;10.048;2022-07-10T07:07:39;19.10;44.60
1135;DHT22;556;53.550;10.048;2022-07-10T07:10:07;19.10;44.60
1135;DHT22;556;53.550;10.048;2022-07-10T07:12:35;19.10;44.60
1135;DHT22;556;53.550;10.048;2022-07-10T07:15:04;19.20;44.50
1135;DHT22;556;53.550;10.048;2022-07-10T07:20:12;19.20;44.30
1135;DHT22;556;53.550;10.048;2022-07-10T07:25:37;19.20;44.10
1135;DHT22;556;53.550;10.048;2022-07-10T07:28:08;19.20;44.10
1135;DHT22;556;53.550;10.048;2022-07-10T07:30:37;19.30;44.00
1135;DHT22;556;53.550;10.048;2022-07-10T07:33:04;19.40;44.00
1135;DHT22;556;53.550;10.048;2022-07-10T07:37:58;19.60;43.80
1135;DHT22;556;53.550;10.048;2022-07-10T07:40:25;19.70;43.60
1135;DHT22;556;53.550;10.048;2022-07-10T07:45:21;19.90;43.30
1135;DHT22;556;53.550;10.048;2022-07-10T07:47:51;20.00;43.20
1135;DHT22;556;53.550;10.048;2022-07-10T07:50:20;20.10;42.90
1135;DHT22;556;53.550;10.048;2022-07-10T07:52:48;20.10;42.70
1135;DHT22;556;53.550;10.048;2022-07-10T07:55:17;20.00;42.60
1135;DHT22;556;53.550;10.048;2022-07-10T07:57:45;19.90;42.50
1135;DHT22;556;53.550;10.048;2022-07-10T08:00:13;19.80;42.60
1135;DHT22;556;53.550;10.048;2022-07-10T08:02:43;19.80;42.40
1135;DHT22;556;53.550;10.048;2022-07-10T08:10:10;19.90;42.20
1135;DHT22;556;53.550;10.048;2022-07-10T08:12:37;19.90;42.10
1135;DHT22;556;53.550;10.048;2022-07-10T08:17:35;20.20;41.90
1135;DHT22;556;53.550;10.048;2022-07-10T08:20:02;20.50;41.90
1135;DHT22;556;53.550;10.048;2022-07-10T08:22:31;20.80;41.60
1135;DHT22;556;53.550;10.048;2022-07-10T08:24:58;21.00;41.40
1135;DHT22;556;53.550;10.048;2022-07-10T08:29:53;21.00;41.30
1135;DHT22;556;53.550;10.048;2022-07-10T08:32:20;21.00;41.20
1135;DHT22;556;53.550;10.048;2022-07-10T08:34:47;20.90;41.00
1135;DHT22;556;53.550;10.048;2022-07-10T08:37:15;20.80;41.40
1135;DHT22;556;53.550;10.048;2022-07-10T08:39:44;20.70;41.10
1135;DHT22;556;53.550;10.048;2022-07-10T08:42:11;20.70;41.30
1135;DHT22;556;53.550;10.048;2022-07-10T08:44:38;20.70;41.30
1135;DHT22;556;53.550;10.048;2022-07-10T08:47:05;20.80;41.20
1135;DHT22;556;53.550;10.048;2022-07-10T08:49:33;20.90;41.00
1135;DHT22;556;53.550;10.048;2022-07-10T08:52:04;21.00;40.80
1135;DHT22;556;53.550;10.048;2022-07-10T08:54:32;21.00;40.90
1135;DHT22;556;53.550;10.048;2022-07-10T08:57:02;21.00;40.60
1135;DHT22;556;53.550;10.048;2022-07-10T08:59:30;21.10;40.70
1135;DHT22;556;53.550;10.048;2022-07-10T09:04:26;21.30;40.40
1135;DHT22;556;53.550;10.048;2022-07-10T09:06:54;21.20;40.10
1135;DHT22;556;53.550;10.048;2022-07-10T09:09:22;21.10;40.10
1135;DHT22;556;53.550;10.048;2022-07-10T09:14:26;21.20;40.10
1135;DHT22;556;53.550;10.048;2022-07-10T09:16:54;21.30;39.80
1135;DHT22;556;53.550;10.048;2022-07-10T09:19:23;21.50;39.80
1135;DHT22;556;53.550;10.048;2022-07-10T09:21:51;21.70;39.60
1135;DHT22;556;53.550;10.048;2022-07-10T09:26:58;21.70;39.00
1135;DHT22;556;53.550;10.048;2022-07-10T09:29:27;21.50;38.80
1135;DHT22;556;53.550;10.048;2022-07-10T09:34:36;21.40;39.40
1135;DHT22;556;53.550;10.048;2022-07-10T09:37:18;21.50;39.30
1135;DHT22;556;53.550;10.048;2022-07-10T09:39:52;21.70;38.70
1135;DHT22;556;53.550;10.048;2022-07-10T09:42:27;21.70;38.60
1135;DHT22;556;53.550;10.048;2022-07-10T09:47:44;21.90;38.40
1135;DHT22;556;53.550;10.048;2022-07-10T09:50:23;21.80;38.20
1135;DHT22;556;53.550;10.048;2022-07-10T09:52:52;21.70;38.00
1135;DHT22;556;53.550;10.048;2022-07-10T10:00:22;21.80;38.00
1135;DHT22;556;53.550;10.048;2022-07-10T10:02:55;22.00;38.00
1135;DHT22;556;53.550;10.048;2022-07-10T10:05:35;22.20;37.80
1135;DHT22;556;53.550;10.048;2022-07-10T10:08:09;22.40;37.60
1135;DHT22;556;53.550;10.048;2022-07-10T10:10:42;22.50;37.50
1135;DHT22;556;53.550;10.048;2022-07-10T10:13:11;22.60;37.40
1135;DHT22;556;53.550;10.048;2022-07-10T10:15:38;22.70;37.20
1135;DHT22;556;53.550;10.048;2022-07-10T10:18:07;22.70;37.20
1135;DHT22;556;53.550;10.048;2022-07-10T10:23:12;22.60;36.70
1135;DHT22;556;53.550;10.048;2022-07-10T10:25:40;22.30;36.40
1135;DHT22;556;53.550;10.048;2022-07-10T10:28:09;22.60;36.70
1135;DHT22;556;53.550;10.048;2022-07-10T10:30:38;22.80;36.70
1135;DHT22;556;53.550;10.048;2022-07-10T10:43:18;23.30;36.50
1135;DHT22;556;53.550;10.048;2022-07-10T10:45:45;23.10;36.40
1135;DHT22;556;53.550;10.048;2022-07-10T10:48:14;23.00;36.20
1135;DHT22;556;53.550;10.048;2022-07-10T10:50:42;22.90;36.20
1135;DHT22;556;53.550;10.048;2022-07-10T10:58:37;23.00;35.80
1135;DHT22;556;53.550;10.048;2022-07-10T11:01:05;23.10;35.70
1135;DHT22;556;53.550;10.048;2022-07-10T11:03:32;23.30;35.60
1135;DHT22;556;53.550;10.048;2022-07-10T11:06:00;23.30;35.50
1135;DHT22;556;53.550;10.048;2022-07-10T11:08:38;23.40;35.50
1135;DHT22;556;53.550;10.048;2022-07-10T11:11:39;23.30;35.30
1135;DHT22;556;53.550;10.048;2022-07-10T11:14:10;23.30;35.10
1135;DHT22;556;53.550;10.048;2022-07-10T11:16:45;23.20;35.10
1135;DHT22;556;53.550;10.048;2022-07-10T11:19:23;23.20;34.90
1135;DHT22;556;53.550;10.048;2022-07-10T11:21:58;23.40;35.00
1135;DHT22;556;53.550;10.048;2022-07-10T11:24:51;23.70;34.90
1135;DHT22;556;53.550;10.048;2022-07-10T11:27:29;23.90;34.60
1135;DHT22;556;53.550;10.048;2022-07-10T11:32:33;24.10;34.40
1135;DHT22;556;53.550;10.048;2022-07-10T11:37:28;23.90;34.30
1135;DHT22;556;53.550;10.048;2022-07-10T11:40:09;23.60;34.40
1135;DHT22;556;53.550;10.048;2022-07-10T11:45:25;23.70;34.60
1135;DHT22;556;53.550;10.048;2022-07-10T11:50:20;24.10;34.30
1135;DHT22;556;53.550;10.048;2022-07-10T11:52:47;24.10;34.30
1135;DHT22;556;53.550;10.048;2022-07-10T11:55:16;24.10;34.50
1135;DHT22;556;53.550;10.048;2022-07-10T12:00:23;23.70;34.20
1135;DHT22;556;53.550;10.048;2022-07-10T12:02:51;23.60;34.10
1135;DHT22;556;53.550;10.048;2022-07-10T12:05:34;23.70;34.30
1135;DHT22;556;53.550;10.048;2022-07-10T12:08:02;23.70;34.30
1135;DHT22;556;53.550;10.048;2022-07-10T12:10:32;23.60;34.10
1135;DHT22;556;53.550;10.048;2022-07-10T12:13:06;23.60;34.00
1135;DHT22;556;53.550;10.048;2022-07-10T12:15:36;23.80;34.10
1135;DHT22;556;53.550;10.048;2022-07-10T12:20:32;24.00;33.90
1135;DHT22;556;53.550;10.048;2022-07-10T12:23:01;24.10;33.90
1135;DHT22;556;53.550;10.048;2022-07-10T12:25:29;24.20;33.90
1135;DHT22;556;53.550;10.048;2022-07-10T12:27:56;24.30;33.80
1135;DHT22;556;53.550;10.048;2022-07-10T12:30:37;24.40;33.70
1135;DHT22;556;53.550;10.048;2022-07-10T12:33:11;24.30;33.80
1135;DHT22;556;53.550;10.048;2022-07-10T12:35:50;24.40;33.90
1135;DHT22;556;53.550;10.048;2022-07-10T12:38:18;24.40;33.90
1135;DHT22;556;53.550;10.048;2022-07-10T12:43:24;24.50;34.00
1135;DHT22;556;53.550;10.048;2022-07-10T12:46:14;24.70;33.90
1135;DHT22;556;53.550;10.048;2022-07-10T12:48:42;24.70;34.00
1135;DHT22;556;53.550;10.048;2022-07-10T12:51:21;24.50;34.20
1135;DHT22;556;53.550;10.048;2022-07-10T12:56:35;24.30;34.30
1135;DHT22;556;53.550;10.048;2022-07-10T12:59:05;24.30;34.40
1135;DHT22;556;53.550;10.048;2022-07-10T13:01:44;24.40;34.40
1135;DHT22;556;53.550;10.048;2022-07-10T13:04:11;24.40;34.20
1135;DHT22;556;53.550;10.048;2022-07-10T13:06:40;24.20;34.40
1135;DHT22;556;53.550;10.048;2022-07-10T13:09:21;24.10;34.40
1135;DHT22;556;53.550;10.048;2022-07-10T13:11:49;24.10;34.40
1135;DHT22;556;53.550;10.048;2022-07-10T13:16:45;24.00;34.50
1135;DHT22;556;53.550;10.048;2022-07-10T13:19:12;24.00;34.40
1135;DHT22;556;53.550;10.048;2022-07-10T13:21:39;23.90;34.60
1135;DHT22;556;53.550;10.048;2022-07-10T13:26:34;23.90;34.60
1135;DHT22;556;53.550;10.048;2022-07-10T13:29:01;23.90;34.40
1135;DHT22;556;53.550;10.048;2022-07-10T13:31:29;23.80;34.40
1135;DHT22;556;53.550;10.048;2022-07-10T13:33:57;23.70;34.60
1135;DHT22;556;53.550;10.048;2022-07-10T13:36:24;23.60;34.60
1135;DHT22;556;53.550;10.048;2022-07-10T13:38:51;23.50;34.70
1135;DHT22;556;53.550;10.048;2022-07-10T13:46:15;23.60;34.80
1135;DHT22;556;53.550;10.048;2022-07-10T13:48:42;24.00;34.80
1135;DHT22;556;53.550;10.048;2022-07-10T13:51:11;24.30;34.50
1135;DHT22;556;53.550;10.048;2022-07-10T13:53:38;24.10;34.10
1135;DHT22;556;53.550;10.048;2022-07-10T13:56:06;24.20;34.40
1135;DHT22;556;53.550;10.048;2022-07-10T13:58:34;24.00;34.40
1135;DHT22;556;53.550;10.048;2022-07-10T14:01:02;23.90;34.70
1135;DHT22;556;53.550;10.048;2022-07-10T14:05:57;23.90;34.80
1135;DHT22;556;53.550;10.048;2022-07-10T14:08:26;23.80;34.80
1135;DHT22;556;53.550;10.048;2022-07-10T14:10:53;23.80;34.70
1135;DHT22;556;53.550;10.048;2022-07-10T14:13:20;23.70;34.70
1135;DHT22;556;53.550;10.048;2022-07-10T14:18:15;23.60;34.80
1135;DHT22;556;53.550;10.048;2022-07-10T14:21:00;23.60;34.90
1135;DHT22;556;53.550;10.048;2022-07-10T14:25:59;23.70;35.00
1135;DHT22;556;53.550;10.048;2022-07-10T14:30:54;24.10;34.90
1135;DHT22;556;53.550;10.048;2022-07-10T14:35:48;23.90;35.00
1135;DHT22;556;53.550;10.048;2022-07-10T14:38:15;23.70;35.10
1135;DHT22;556;53.550;10.048;2022-07-10T14:40:44;23.70;35.10
1135;DHT22;556;53.550;10.048;2022-07-10T14:43:11;23.70;35.10
1135;DHT22;556;53.550;10.048;2022-07-10T14:45:38;24.00;35.10
1135;DHT22;556;53.550;10.048;2022-07-10T14:48:05;24.30;34.90
1135;DHT22;556;53.550;10.048;2022-07-10T14:50:33;24.40;35.00
1135;DHT22;556;53.550;10.048;2022-07-10T14:55:28;24.70;34.80
1135;DHT22;556;53.550;10.048;2022-07-10T14:57:57;24.70;34.70
1135;DHT22;556;53.550;10.048;2022-07-10T15:00:24;24.60;34.70
1135;DHT22;556;53.550;10.048;2022-07-10T15:02:51;24.80;34.80
1135;DHT22;556;53.550;10.048;2022-07-10T15:05:18;25.10;34.60
1135;DHT22;556;53.550;10.048;2022-07-10T15:07:46;25.30;34.50
1135;DHT22;556;53.550;10.048;2022-07-10T15:10:13;25.30;34.40
1135;DHT22;556;53.550;10.048;2022-07-10T15:12:41;25.20;34.50
1135;DHT22;556;53.550;10.048;2022-07-10T15:15:11;25.10;34.60
1135;DHT22;556;53.550;10.048;2022-07-10T15:17:38;24.90;34.70
1135;DHT22;556;53.550;10.048;2022-07-10T15:20:06;24.90;34.80
1135;DHT22;556;53.550;10.048;2022-07-10T15:22:33;24.80;34.70
1135;DHT22;556;53.550;10.048;2022-07-10T15:25:01;24.90;34.80
1135;DHT22;556;53.550;10.048;2022-07-10T15:27:28;25.40;34.50
1135;DHT22;556;53.550;10.048;2022-07-10T15:29:55;25.70;34.10
1135;DHT22;556;53.550;10.048;2022-07-10T15:32:23;25.70;33.90
1135;DHT22;556;53.550;10.048;2022-07-10T15:34:51;25.30;33.90
1135;DHT22;556;53.550;10.048;2022-07-10T15:37:19;24.90;34.10
1135;DHT22;556;53.550;10.048;2022-07-10T15:44:41;24.80;34.30
1135;DHT22;556;53.550;10.048;2022-07-10T15:47:08;24.60;34.20
1135;DHT22;556;53.550;10.048;2022-07-10T15:49:36;24.70;34.40
1135;DHT22;556;53.550;10.048;2022-07-10T15:52:04;25.30;34.40
1135;DHT22;556;53.550;10.048;2022-07-10T15:54:31;25.60;34.00
1135;DHT22;556;53.550;10.048;2022-07-10T16:01:56;26.00;33.70
1135;DHT22;556;53.550;10.048;2022-07-10T16:04:23;26.00;33.40
1135;DHT22;556;53.550;10.048;2022-07-10T16:06:52;25.90;33.40
1135;DHT22;556;53.550;10.048;2022-07-10T16:14:15;27.00;33.00
1135;DHT22;556;53.550;10.048;2022-07-10T16:16:44;27.00;32.70
1135;DHT22;556;53.550;10.048;2022-07-10T16:21:38;27.30;32.60
1135;DHT22;556;53.550;10.048;2022-07-10T16:24:07;27.90;32.50
1135;DHT22;556;53.550;10.048;2022-07-10T16:26:34;28.60;32.10
1135;DHT22;556;53.550;10.048;2022-07-10T16:29:01;29.40;31.60
1135;DHT22;556;53.550;10.048;2022-07-10T16:33:57;30.50;30.40
1135;DHT22;556;53.550;10.048;2022-07-10T16:36:24;30.20;29.90
1135;DHT22;556;53.550;10.048;2022-07-10T16:38:51;30.50;30.10
1135;DHT22;556;53.550;10.048;2022-07-10T16:41:20;30.90;29.90
1135;DHT22;556;53.550;10.048;2022-07-10T16:46:15;30.60;29.50
1135;DHT22;556;53.550;10.048;2022-07-10T16:48:43;30.70;29.60
1135;DHT22;556;53.550;10.048;2022-07-10T16:53:38;30.80;29.30
1135;DHT22;556;53.550;10.048;2022-07-10T17:05:57;27.40;30.60
1135;DHT22;556;53.550;10.048;2022-07-10T17:08:24;27.80;30.50
1135;DHT22;556;53.550;10.048;2022-07-10T17:10:51;28.10;30.30
1135;DHT22;556;53.550;10.048;2022-07-10T17:13:20;28.20;30.30
1135;DHT22;556;53.550;10.048;2022-07-10T17:18:16;28.50;30.20
1135;DHT22;556;53.550;10.048;2022-07-10T17:25:38;28.80;30.00
1135;DHT22;556;53.550;10.048;2022-07-10T17:28:05;29.10;29.90
1135;DHT22;556;53.550;10.048;2022-07-10T17:30:32;28.90;29.90
1135;DHT22;556;53.550;10.048;2022-07-10T17:33:01;28.80;30.00
1135;DHT22;556;53.550;10.048;2022-07-10T17:37:55;29.30;29.80
1135;DHT22;556;53.550;10.048;2022-07-10T17:40:22;29.50;29.60
1135;DHT22;556;53.550;10.048;2022-07-10T17:42:51;29.60;29.60
1135;DHT22;556;53.550;10.048;2022-07-10T17:47:46;29.70;29.30
1135;DHT22;556;53.550;10.048;2022-07-10T17:55:10;28.70;29.30
1135;DHT22;556;53.550;10.048;2022-07-10T18:00:06;28.20;29.50
1135;DHT22;556;53.550;10.048;2022-07-10T18:05:06;28.20;29.40
1135;DHT22;556;53.550;10.048;2022-07-10T18:07:38;28.30;29.40
1135;DHT22;556;53.550;10.048;2022-07-10T18:10:05;28.40;29.30
1135;DHT22;556;53.550;10.048;2022-07-10T18:12:33;28.80;29.30
1135;DHT22;556;53.550;10.048;2022-07-10T18:17:27;28.40;29.20
1135;DHT22;556;53.550;10.048;2022-07-10T18:19:54;28.10;29.50
1135;DHT22;556;53.550;10.048;2022-07-10T18:22:23;28.00;29.50
1135;DHT22;556;53.550;10.048;2022-07-10T18:32:15;27.80;29.70
1135;DHT22;556;53.550;10.048;2022-07-10T18:37:10;27.50;29.70
1135;DHT22;556;53.550;10.048;2022-07-10T18:42:06;26.90;30.00
1135;DHT22;556;53.550;10.048;2022-07-10T18:47:01;26.70;30.20
1135;DHT22;556;53.550;10.048;2022-07-10T18:49:28;26.50;30.20
1135;DHT22;556;53.550;10.048;2022-07-10T18:51:55;26.20;30.40
1135;DHT22;556;53.550;10.048;2022-07-10T18:54:22;26.00;30.60
1135;DHT22;556;53.550;10.048;2022-07-10T18:56:50;25.80;30.80
1135;DHT22;556;53.550;10.048;2022-07-10T19:01:45;25.60;31.10
1135;DHT22;556;53.550;10.048;2022-07-10T19:11:35;24.80;31.90
1135;DHT22;556;53.550;10.048;2022-07-10T19:14:02;24.70;31.90
1135;DHT22;556;53.550;10.048;2022-07-10T19:16:31;24.60;31.90
1135;DHT22;556;53.550;10.048;2022-07-10T19:18:58;24.30;31.90
1135;DHT22;556;53.550;10.048;2022-07-10T19:21:25;24.00;32.10
1135;DHT22;556;53.550;10.048;2022-07-10T19:23:52;23.70;32.30
1135;DHT22;556;53.550;10.048;2022-07-10T19:31:14;22.80;33.00
1135;DHT22;556;53.550;10.048;2022-07-10T19:33:44;22.30;33.20
1135;DHT22;556;53.550;10.048;2022-07-10T19:36:13;22.00;33.50
1135;DHT22;556;53.550;10.048;2022-07-10T19:38:40;21.60;33.80
1135;DHT22;556;53.550;10.048;2022-07-10T19:51:01;20.20;34.90
1135;DHT22;556;53.550;10.048;2022-07-10T19:53:28;20.00;34.90
1135;DHT22;556;53.550;10.048;2022-07-10T19:55:55;20.00;35.30
1135;DHT22;556;53.550;10.048;2022-07-10T19:58:22;19.90;35.60
1135;DHT22;556;53.550;10.048;2022-07-10T20:00:50;19.70;35.60
1135;DHT22;556;53.550;10.048;2022-07-10T20:03:17;19.60;35.70
1135;DHT22;556;53.550;10.048;2022-07-10T20:05:44;19.50;35.90
1135;DHT22;556;53.550;10.048;2022-07-10T20:08:13;19.50;36.80
1135;DHT22;556;53.550;10.048;2022-07-10T20:10:40;19.40;36.80
1135;DHT22;556;53.550;10.048;2022-07-10T20:13:07;19.30;36.70
1135;DHT22;556;53.550;10.048;2022-07-10T20:15:35;19.30;37.20
1135;DHT22;556;53.550;10.048;2022-07-10T20:18:02;19.10;37.10
1135;DHT22;556;53.550;10.048;2022-07-10T20:20:29;19.10;37.60
1135;DHT22;556;53.550;10.048;2022-07-10T20:22:56;19.00;37.70
1135;DHT22;556;53.550;10.048;2022-07-10T20:25:24;18.90;37.90
1135;DHT22;556;53.550;10.048;2022-07-10T20:27:51;18.90;38.30
1135;DHT22;556;53.550;10.048;2022-07-10T20:30:19;18.70;37.90
1135;DHT22;556;53.550;10.048;2022-07-10T20:32:47;18.60;38.00
1135;DHT22;556;53.550;10.048;2022-07-10T20:35:14;18.70;38.10
1135;DHT22;556;53.550;10.048;2022-07-10T20:37:41;18.70;38.10
1135;DHT22;556;53.550;10.048;2022-07-10T20:40:10;18.50;38.10
1135;DHT22;556;53.550;10.048;2022-07-10T20:42:40;18.50;38.30
1135;DHT22;556;53.550;10.048;2022-07-10T20:45:10;18.50;38.50
1135;DHT22;556;53.550;10.048;2022-07-10T20:47:38;18.50;38.50
1135;DHT22;556;53.550;10.048;2022-07-10T20:52:34;18.30;38.60
1135;DHT22;556;53.550;10.048;2022-07-10T20:55:02;18.30;38.70
1135;DHT22;556;53.550;10.048;2022-07-10T20:59:57;18.20;39.00
1135;DHT22;556;53.550;10.048;2022-07-10T21:04:52;18.10;39.30
1135;DHT22;556;53.550;10.048;2022-07-10T21:09:47;18.00;39.90
1135;DHT22;556;53.550;10.048;2022-07-10T21:12:15;18.00;39.90
1135;DHT22;556;53.550;10.048;2022-07-10T21:14:44;18.00;40.10
1135;DHT22;556;53.550;10.048;2022-07-10T21:17:13;18.00;40.00
1135;DHT22;556;53.550;10.048;2022-07-10T21:19:40;18.00;40.10
1135;DHT22;556;53.550;10.048;2022-07-10T21:22:08;17.90;40.20
1135;DHT22;556;53.550;10.048;2022-07-10T21:24:35;17.90;40.20
1135;DHT22;556;53.550;10.048;2022-07-10T21:27:02;18.00;40.40
1135;DHT22;556;53.550;10.048;2022-07-10T21:29:29;17.90;40.40
1135;DHT22;556;53.550;10.048;2022-07-10T21:31:57;17.90;40.50
1135;DHT22;556;53.550;10.048;2022-07-10T21:36:52;17.80;40.70
1135;DHT22;556;53.550;10.048;2022-07-10T21:39:19;17.70;40.80
1135;DHT22;556;53.550;10.048;2022-07-10T21:41:47;17.70;40.90
1135;DHT22;556;53.550;10.048;2022-07-10T21:44:14;17.60;41.00
1135;DHT22;556;53.550;10.048;2022-07-10T21:46:41;17.60;41.00
1135;DHT22;556;53.550;10.048;2022-07-10T21:49:08;17.60;41.10
1135;DHT22;556;53.550;10.048;2022-07-10T21:51:37;17.50;41.10
1135;DHT22;556;53.550;10.048;2022-07-10T21:54:04;17.60;41.20
1135;DHT22;556;53.550;10.048;2022-07-10T21:56:31;17.50;41.30
1135;DHT22;556;53.550;10.048;2022-07-10T21:58:58;17.50;41.40
1135;DHT22;556;53.550;10.048;2022-07-10T22:01:25;17.50;41.50
1135;DHT22;556;53.550;10.048;2022-07-10T22:03:52;17.40;41.40
1135;DHT22;556;53.550;10.048;2022-07-10T22:06:19;17.40;41.50
1135;DHT22;556;53.550;10.048;2022-07-10T22:08:48;17.40;41.70
1135;DHT22;556;53.550;10.048;2022-07-10T22:11:15;17.40;41.70